Aviation Digital Data Service (ADDS)

Output produced by METARs form (0431 UTC 28 April 2017)
found at http://www.aviationweather.gov/adds/metars/
 
KPHL 272327Z 2800/2906 17008KT P6SM BKN250 
     FM280400 20006KT P6SM BKN060 
     FM280700 24006KT P6SM BKN045 
     TEMPO 2807/2810 -SHRA OVC025 
     FM281000 28006KT P6SM BKN035 
     FM281300 28008KT P6SM SCT050 
     FM282100 24008KT P6SM SCT050 
     FM290100 20004KT P6SM FEW050